createdAt,value
2018-04-12T00:01:22.602Z,21.70
2018-04-12T00:03:50.222Z,23.50
2018-04-12T00:06:18.622Z,22.50
2018-04-12T00:08:50.525Z,22.67
2018-04-12T00:11:20.887Z,22.10
2018-04-12T00:13:48.611Z,22.43
2018-04-12T00:16:16.193Z,23.27
2018-04-12T00:18:43.813Z,23.27
2018-04-12T00:21:11.439Z,23.43
2018-04-12T00:23:39.797Z,22.77
2018-04-12T00:26:07.405Z,22.87
2018-04-12T00:28:35.031Z,22.83
2018-04-12T00:31:03.422Z,22.37
2018-04-12T00:33:31.777Z,23.63
2018-04-12T00:35:59.397Z,23.83
2018-04-12T00:38:27.012Z,23.83
2018-04-12T00:40:55.452Z,23.57
2018-04-12T00:43:23.047Z,23.17
2018-04-12T00:45:51.401Z,22.77
2018-04-12T00:48:19.023Z,23.47
2018-04-12T00:50:46.616Z,22.97
2018-04-12T00:53:14.232Z,22.13
2018-04-12T00:55:41.844Z,23.80
2018-04-12T00:58:09.470Z,23.73
2018-04-12T01:00:37.087Z,24.00
2018-04-12T01:03:05.448Z,22.53
2018-04-12T01:05:33.084Z,24.60
2018-04-12T01:08:00.998Z,23.73
2018-04-12T01:10:29.379Z,23.43
2018-04-12T01:12:57.737Z,23.87
2018-04-12T01:15:25.387Z,24.10
2018-04-12T01:17:52.996Z,23.00
2018-04-12T01:20:20.638Z,23.83
2018-04-12T01:22:49.026Z,24.20
2018-04-12T01:25:16.624Z,23.83
2018-04-12T01:27:44.242Z,23.83
2018-04-12T01:30:11.858Z,23.93
2018-04-12T01:32:39.537Z,23.23
2018-04-12T01:35:07.921Z,23.23
2018-04-12T01:37:36.317Z,25.30
2018-04-12T01:40:03.964Z,23.87
2018-04-12T01:42:32.365Z,24.27
2018-04-12T01:44:59.970Z,23.27
2018-04-12T01:47:27.698Z,25.13
2018-04-12T01:49:55.452Z,22.80
2018-04-12T01:52:23.234Z,24.57
2018-04-12T01:54:50.956Z,24.47
2018-04-12T01:57:19.387Z,23.43
2018-04-12T01:59:46.980Z,23.93
2018-04-12T02:02:14.628Z,24.40
2018-04-12T02:04:42.248Z,24.67
2018-04-12T02:07:09.931Z,24.83
2018-04-12T02:09:37.609Z,24.57
2018-04-12T02:12:05.212Z,24.10
2018-04-12T02:14:33.621Z,24.20
2018-04-12T02:17:01.478Z,24.93
2018-04-12T02:19:29.158Z,24.73
2018-04-12T02:21:56.803Z,25.63
2018-04-12T02:24:24.439Z,23.73
2018-04-12T02:26:52.111Z,25.47
2018-04-12T02:29:19.808Z,25.70
2018-04-12T02:31:47.464Z,25.47
2018-04-12T02:34:15.113Z,25.57
2018-04-12T02:36:42.780Z,25.97
2018-04-12T02:39:10.435Z,25.60
2018-04-12T02:41:38.106Z,25.10
2018-04-12T02:44:05.745Z,25.27
2018-04-12T02:46:33.409Z,26.17
2018-04-12T02:49:01.061Z,25.40
2018-04-12T02:51:28.750Z,25.37
2018-04-12T02:53:56.354Z,26.03
2018-04-12T02:56:24.804Z,25.10
2018-04-12T02:58:52.457Z,25.03
2018-04-12T03:01:20.089Z,26.77
2018-04-12T03:06:38.378Z,24.27
2018-04-12T03:09:06.036Z,26.77
2018-04-12T03:11:33.655Z,26.07
2018-04-12T03:14:02.064Z,27.17
2018-04-12T03:16:29.726Z,26.00
2018-04-12T03:18:57.383Z,26.33
2018-04-12T03:21:25.024Z,26.33
2018-04-12T03:23:52.653Z,27.43
2018-04-12T03:26:21.111Z,25.67
2018-04-12T03:28:48.802Z,25.97
2018-04-12T03:31:17.204Z,27.53
2018-04-12T03:33:45.845Z,26.63
2018-04-12T03:36:13.479Z,28.53
2018-04-12T03:38:41.114Z,26.67
2018-04-12T03:41:08.810Z,27.27
2018-04-12T03:43:36.485Z,26.67
2018-04-12T03:46:04.136Z,25.67
2018-04-12T03:48:31.787Z,26.03
2018-04-12T03:50:59.554Z,27.53
2018-04-12T03:53:27.191Z,26.97
2018-04-12T03:55:54.852Z,27.30
2018-04-12T03:58:22.513Z,27.17
2018-04-12T04:00:50.123Z,27.20
2018-04-12T04:03:17.780Z,27.93
2018-04-12T04:05:45.480Z,28.50
2018-04-12T04:08:13.185Z,27.23
2018-04-12T04:10:40.792Z,27.43
2018-04-12T04:13:08.452Z,27.40
2018-04-12T04:15:47.969Z,27.90
2018-04-12T04:18:28.416Z,28.10
2018-04-12T04:23:53.324Z,27.77
2018-04-12T04:26:20.992Z,27.40
2018-04-12T04:28:48.606Z,27.00
2018-04-12T04:31:16.270Z,29.23
2018-04-12T04:33:44.007Z,27.20
2018-04-12T04:36:11.674Z,28.73
2018-04-12T04:38:39.335Z,28.13
2018-04-12T04:41:07.794Z,28.33
2018-04-12T04:43:35.384Z,27.30
2018-04-12T04:46:03.034Z,26.47
2018-04-12T04:48:31.461Z,28.43
2018-04-12T04:50:59.324Z,27.13
2018-04-12T04:53:27.690Z,28.07
2018-04-12T04:55:55.375Z,26.70
2018-04-12T04:58:23.016Z,26.27
2018-04-12T05:00:51.304Z,26.40
2018-04-12T05:03:18.974Z,26.13
2018-04-12T05:05:46.600Z,25.63
2018-04-12T05:08:14.210Z,25.40
2018-04-12T05:10:41.825Z,25.20
2018-04-12T05:13:09.487Z,26.07
2018-04-12T05:15:37.197Z,25.87
2018-04-12T05:18:04.804Z,27.07
2018-04-12T05:20:33.072Z,25.13
2018-04-12T05:23:00.728Z,26.40
2018-04-12T05:25:28.395Z,24.17
2018-04-12T05:27:56.028Z,25.63
2018-04-12T05:30:24.384Z,24.87
2018-04-12T05:32:51.994Z,24.10
2018-04-12T05:35:19.675Z,23.20
2018-04-12T05:37:47.678Z,22.20
2018-04-12T05:40:15.297Z,23.67
2018-04-12T05:42:42.962Z,22.27
2018-04-12T05:45:10.594Z,23.47
2018-04-12T05:47:38.298Z,24.20
2018-04-12T05:50:06.769Z,22.30
2018-04-12T05:52:34.472Z,22.40
2018-04-12T05:55:02.914Z,23.03
2018-04-12T05:57:30.531Z,22.13
2018-04-12T05:59:58.907Z,23.70
2018-04-12T06:02:27.314Z,23.63
2018-04-12T06:04:54.926Z,22.60
2018-04-12T06:07:22.572Z,23.67
2018-04-12T06:09:50.200Z,21.93
2018-04-12T06:12:17.835Z,23.00
2018-04-12T06:14:45.423Z,24.27
2018-04-12T06:17:13.646Z,21.07
2018-04-12T06:19:42.061Z,20.70
2018-04-12T06:22:09.693Z,21.57
2018-04-12T06:24:38.062Z,20.70
2018-04-12T06:27:06.480Z,22.37
2018-04-12T06:29:34.076Z,20.87
2018-04-12T06:32:01.769Z,21.33
2018-04-12T06:34:30.977Z,19.80
2018-04-12T06:36:59.217Z,21.07
2018-04-12T06:39:26.912Z,19.87
2018-04-12T06:41:55.319Z,19.47
2018-04-12T06:44:22.912Z,19.10
2018-04-12T06:46:50.563Z,19.30
2018-04-12T06:49:18.166Z,18.83
2018-04-12T06:51:46.531Z,17.97
2018-04-12T06:54:14.962Z,18.17
2018-04-12T06:56:42.594Z,18.23
2018-04-12T06:59:10.200Z,18.20
2018-04-12T07:01:37.836Z,18.70
2018-04-12T07:04:05.467Z,17.37
2018-04-12T07:06:34.937Z,17.73
2018-04-12T07:09:03.330Z,18.60
2018-04-12T07:11:31.774Z,17.87
2018-04-12T07:13:59.425Z,18.30
2018-04-12T07:16:27.055Z,16.67
2018-04-12T07:18:56.087Z,17.47
2018-04-12T07:21:23.718Z,17.20
2018-04-12T07:23:51.412Z,16.97
2018-04-12T07:26:19.042Z,17.83
2018-04-12T07:28:47.288Z,17.17
2018-04-12T07:31:16.291Z,18.00
2018-04-12T07:33:45.331Z,16.47
2018-04-12T07:36:12.965Z,16.43
2018-04-12T07:38:40.604Z,18.33
2018-04-12T07:41:08.258Z,17.17
2018-04-12T07:43:36.623Z,17.63
2018-04-12T07:46:04.264Z,16.80
2018-04-12T07:48:31.928Z,16.13
2018-04-12T07:50:59.742Z,16.10
2018-04-12T07:53:27.451Z,16.10
2018-04-12T07:55:55.042Z,16.87
2018-04-12T07:58:23.603Z,16.73
2018-04-12T08:00:52.313Z,15.83
2018-04-12T08:03:20.051Z,17.33
2018-04-12T08:05:48.641Z,16.77
2018-04-12T08:08:16.296Z,16.87
2018-04-12T08:10:43.889Z,14.67
2018-04-12T08:13:12.280Z,17.33
2018-04-12T08:15:39.975Z,15.37
2018-04-12T08:18:07.677Z,15.70
2018-04-12T08:20:36.073Z,15.00
2018-04-12T08:23:05.157Z,15.37
2018-04-12T08:25:33.697Z,14.70
2018-04-12T08:28:01.352Z,15.10
2018-04-12T08:30:29.419Z,15.07
2018-04-12T08:32:57.092Z,14.73
2018-04-12T08:35:24.747Z,15.13
2018-04-12T08:37:52.368Z,16.50
2018-04-12T08:40:20.000Z,16.20
2018-04-12T08:42:49.990Z,15.03
2018-04-12T08:45:17.570Z,13.63
2018-04-12T08:47:45.209Z,15.20
2018-04-12T08:50:12.877Z,15.57
2018-04-12T08:52:40.556Z,15.20
2018-04-12T08:55:08.944Z,16.23
2018-04-12T08:57:37.328Z,14.63
2018-04-12T09:00:06.719Z,15.43
2018-04-12T09:02:35.132Z,14.87
2018-04-12T09:05:02.794Z,15.17
2018-04-12T09:07:30.478Z,15.10
2018-04-12T09:09:58.954Z,14.80
2018-04-12T09:12:26.600Z,15.73
2018-04-12T09:14:54.280Z,13.47
2018-04-12T09:17:21.935Z,14.00
2018-04-12T09:19:49.702Z,14.80
2018-04-12T09:22:17.800Z,13.07
2018-04-12T09:24:46.903Z,13.23
2018-04-12T09:27:14.566Z,13.90
2018-04-12T09:29:44.016Z,13.40
2018-04-12T09:32:11.681Z,13.33
2018-04-12T09:34:39.441Z,13.63
2018-04-12T09:37:07.109Z,12.83
2018-04-12T09:39:34.738Z,13.03
2018-04-12T09:42:03.236Z,12.93
2018-04-12T09:44:31.065Z,12.67
2018-04-12T09:46:59.440Z,12.20
2018-04-12T09:49:27.080Z,13.50
2018-04-12T09:51:54.700Z,13.47
2018-04-12T09:54:22.316Z,12.33
2018-04-12T09:56:49.917Z,12.07
2018-04-12T09:59:17.602Z,11.83
2018-04-12T10:01:50.999Z,12.00
2018-04-12T10:04:19.229Z,12.63
2018-04-12T10:06:52.624Z,14.03
2018-04-12T10:09:21.189Z,12.00
2018-04-12T10:11:48.867Z,11.90
2018-04-12T10:14:17.321Z,11.90
2018-04-12T10:16:45.039Z,13.23
2018-04-12T10:19:12.744Z,11.57
2018-04-12T10:21:40.471Z,11.87
2018-04-12T10:24:08.923Z,11.60
2018-04-12T10:26:36.661Z,11.43
2018-04-12T10:29:04.270Z,11.73
2018-04-12T10:31:31.938Z,13.33
2018-04-12T10:33:59.679Z,12.47
2018-04-12T10:36:27.368Z,13.30
2018-04-12T10:38:55.976Z,12.17
2018-04-12T10:41:23.572Z,13.37
2018-04-12T10:43:51.980Z,13.47
2018-04-12T10:46:19.651Z,12.43
2018-04-12T10:48:47.320Z,12.13
2018-04-12T10:51:15.006Z,11.50
2018-04-12T10:53:43.944Z,11.00
2018-04-12T10:56:12.394Z,11.97
2018-04-12T10:58:40.819Z,11.03
2018-04-12T11:01:08.403Z,11.87
2018-04-12T11:03:36.017Z,10.93
2018-04-12T11:06:03.728Z,10.90
2018-04-12T11:08:32.128Z,11.07
2018-04-12T11:11:00.535Z,10.30
2018-04-12T11:13:28.135Z,10.37
2018-04-12T11:15:56.638Z,10.30
2018-04-12T11:18:25.084Z,9.70
2018-04-12T11:20:53.437Z,10.90
2018-04-12T11:23:21.200Z,10.27
2018-04-12T11:25:48.837Z,9.10
2018-04-12T11:28:17.273Z,8.63
2018-04-12T11:30:44.916Z,8.73
2018-04-12T11:33:12.721Z,9.40
2018-04-12T11:35:40.467Z,6.97
2018-04-12T11:38:08.121Z,6.60
2018-04-12T11:40:35.731Z,6.40
2018-04-12T11:43:03.377Z,6.00
2018-04-12T11:45:31.742Z,5.67
2018-04-12T11:48:00.210Z,5.90
2018-04-12T11:50:27.847Z,6.53
2018-04-12T11:52:55.653Z,6.77
2018-04-12T11:55:24.052Z,6.50
2018-04-12T11:57:52.396Z,5.13
2018-04-12T12:00:20.042Z,6.23
2018-04-12T12:02:47.652Z,6.03
2018-04-12T12:05:16.250Z,7.43
2018-04-12T12:07:43.933Z,5.70
2018-04-12T12:10:11.570Z,6.03
2018-04-12T12:12:39.223Z,5.57
2018-04-12T12:15:07.024Z,5.50
2018-04-12T12:17:34.707Z,5.27
2018-04-12T12:20:03.096Z,5.67
2018-04-12T12:22:30.742Z,5.87
2018-04-12T12:24:59.140Z,5.43
2018-04-12T12:27:26.861Z,6.03
2018-04-12T12:29:54.625Z,5.23
2018-04-12T12:32:22.283Z,5.60
2018-04-12T12:34:49.883Z,5.87
2018-04-12T12:37:17.520Z,5.03
2018-04-12T12:39:45.185Z,4.97
2018-04-12T12:42:14.522Z,5.03
2018-04-12T12:44:42.922Z,4.77
2018-04-12T12:47:10.627Z,4.97
2018-04-12T12:49:38.226Z,6.27
2018-04-12T12:52:07.461Z,5.90
2018-04-12T12:54:35.106Z,6.47
2018-04-12T12:57:02.717Z,5.50
2018-04-12T12:59:30.432Z,6.27
2018-04-12T13:01:58.070Z,5.83
2018-04-12T13:04:26.501Z,6.80
2018-04-12T13:06:54.589Z,6.50
2018-04-12T13:09:22.252Z,6.53
2018-04-12T13:11:50.083Z,6.07
2018-04-12T13:14:17.857Z,6.20
2018-04-12T13:16:46.819Z,5.77
2018-04-12T13:19:14.726Z,5.97
2018-04-12T13:21:42.485Z,6.80
2018-04-12T13:24:10.080Z,8.00
2018-04-12T13:26:38.452Z,5.87
2018-04-12T13:29:06.146Z,6.27
2018-04-12T13:31:33.856Z,6.70
2018-04-12T13:34:01.647Z,6.87
2018-04-12T13:36:30.016Z,6.47
2018-04-12T13:38:57.645Z,6.30
2018-04-12T13:41:25.345Z,6.00
2018-04-12T13:43:53.896Z,5.87
2018-04-12T13:46:21.494Z,6.10
2018-04-12T13:48:49.918Z,6.63
2018-04-12T13:51:17.658Z,6.30
2018-04-12T13:53:45.296Z,5.97
2018-04-12T13:56:14.150Z,6.00
2018-04-12T13:58:42.384Z,6.53
2018-04-12T14:01:09.993Z,6.83
2018-04-12T14:03:37.721Z,7.13
2018-04-12T14:06:05.372Z,7.00
2018-04-12T14:08:33.049Z,7.23
2018-04-12T14:11:00.713Z,6.97
2018-04-12T14:13:28.432Z,6.70
2018-04-12T14:15:56.131Z,6.37
2018-04-12T14:18:23.768Z,6.40
2018-04-12T14:20:51.387Z,6.90
2018-04-12T14:23:19.800Z,6.90
2018-04-12T14:25:47.488Z,7.53
2018-04-12T14:28:15.150Z,6.97
2018-04-12T14:30:42.779Z,6.97
2018-04-12T14:33:11.174Z,6.43
2018-04-12T14:35:38.837Z,6.23
2018-04-12T14:38:06.489Z,7.50
2018-04-12T14:40:34.157Z,5.97
2018-04-12T14:43:01.849Z,7.10
2018-04-12T14:45:30.302Z,6.73
2018-04-12T14:47:58.127Z,6.67
2018-04-12T14:50:25.784Z,6.60
2018-04-12T14:52:53.463Z,6.80
2018-04-12T14:55:21.568Z,6.67
2018-04-12T14:57:49.163Z,6.17
2018-04-12T15:00:16.784Z,7.03
2018-04-12T15:02:44.373Z,7.37
2018-04-12T15:05:11.961Z,6.80
2018-04-12T15:07:41.025Z,7.87
2018-04-12T15:10:08.686Z,6.73
2018-04-12T15:12:36.350Z,7.80
2018-04-12T15:15:04.024Z,8.73
2018-04-12T15:17:32.466Z,8.07
2018-04-12T15:20:00.120Z,8.57
2018-04-12T15:22:27.789Z,9.50
2018-04-12T15:24:55.418Z,9.50
2018-04-12T15:27:23.078Z,9.60
2018-04-12T15:29:50.804Z,9.90
2018-04-12T15:32:18.388Z,9.77
2018-04-12T15:34:46.821Z,10.70
2018-04-12T15:37:14.607Z,8.67
2018-04-12T15:39:42.243Z,8.83
2018-04-12T15:42:09.907Z,9.03
2018-04-12T15:44:38.307Z,9.73
2018-04-12T15:47:05.924Z,10.57
2018-04-12T15:49:33.621Z,9.37
2018-04-12T15:52:01.330Z,9.73
2018-04-12T15:54:29.074Z,12.60
2018-04-12T15:56:57.446Z,11.20
2018-04-12T15:59:25.032Z,9.40
2018-04-12T16:01:53.444Z,10.03
2018-04-12T16:04:21.052Z,10.70
2018-04-12T16:06:49.528Z,12.50
2018-04-12T16:09:17.193Z,10.13
2018-04-12T16:11:45.627Z,11.67
2018-04-12T16:14:13.255Z,11.00
2018-04-12T16:16:40.949Z,12.07
2018-04-12T16:19:08.594Z,11.30
2018-04-12T16:21:36.215Z,11.57
2018-04-12T16:24:04.681Z,11.77
2018-04-12T16:26:32.302Z,11.60
2018-04-12T16:28:59.952Z,10.93
2018-04-12T16:31:27.609Z,14.73
2018-04-12T16:33:55.248Z,13.53
2018-04-12T16:36:23.636Z,13.07
2018-04-12T16:38:51.236Z,12.13
2018-04-12T16:41:18.866Z,10.63
2018-04-12T16:43:46.504Z,12.77
2018-04-12T16:46:14.962Z,11.93
2018-04-12T16:48:42.590Z,12.10
2018-04-12T16:51:10.220Z,12.70
2018-04-12T16:53:38.175Z,12.27
2018-04-12T16:56:06.553Z,12.20
2018-04-12T16:58:34.952Z,12.13
2018-04-12T17:01:02.584Z,12.37
2018-04-12T17:03:31.652Z,12.37
2018-04-12T17:05:59.294Z,12.33
2018-04-12T17:08:26.915Z,13.33
2018-04-12T17:10:54.547Z,13.20
2018-04-12T17:13:22.143Z,12.50
2018-04-12T17:15:50.381Z,11.53
2018-04-12T17:18:17.999Z,13.30
2018-04-12T17:20:45.646Z,12.70
2018-04-12T17:23:13.593Z,13.30
2018-04-12T17:25:42.009Z,13.10
2018-04-12T17:28:09.686Z,13.23
2018-04-12T17:30:37.817Z,12.97
2018-04-12T17:33:05.444Z,13.47
2018-04-12T17:35:33.097Z,13.27
2018-04-12T17:38:00.746Z,13.90
2018-04-12T17:40:28.492Z,14.10
2018-04-12T17:42:56.136Z,14.87
2018-04-12T17:45:23.824Z,13.63
2018-04-12T17:47:51.431Z,14.30
2018-04-12T17:50:19.836Z,15.10
2018-04-12T17:52:47.428Z,14.23
2018-04-12T17:55:15.095Z,14.07
2018-04-12T17:57:42.746Z,14.30
2018-04-12T18:00:10.421Z,15.20
2018-04-12T18:02:38.734Z,14.93
2018-04-12T18:05:07.168Z,15.53
2018-04-12T18:07:34.838Z,14.77
2018-04-12T18:10:03.331Z,15.97
2018-04-12T18:12:31.849Z,15.67
2018-04-12T18:14:59.460Z,16.17
2018-04-12T18:17:27.705Z,17.40
2018-04-12T18:19:55.444Z,16.17
2018-04-12T18:22:23.174Z,17.13
2018-04-12T18:24:51.545Z,17.30
2018-04-12T18:27:19.180Z,17.03
2018-04-12T18:29:46.775Z,16.43
2018-04-12T18:32:15.222Z,16.87
2018-04-12T18:34:42.981Z,17.30
2018-04-12T18:37:10.618Z,18.40
2018-04-12T18:39:40.191Z,16.47
2018-04-12T18:42:08.611Z,17.37
2018-04-12T18:44:36.397Z,17.20
2018-04-12T18:47:04.000Z,16.53
2018-04-12T18:49:31.639Z,16.37
2018-04-12T18:52:00.338Z,17.40
2018-04-12T18:54:28.786Z,17.80
2018-04-12T18:56:56.431Z,16.97
2018-04-12T18:59:24.062Z,18.27
2018-04-12T19:01:51.808Z,16.90
2018-04-12T19:04:20.174Z,17.50
2018-04-12T19:06:48.736Z,16.27
2018-04-12T19:09:16.705Z,17.67
2018-04-12T19:11:44.373Z,18.23
2018-04-12T19:14:13.598Z,17.80
2018-04-12T19:16:41.945Z,17.03
2018-04-12T19:19:09.540Z,16.73
2018-04-12T19:21:37.247Z,18.80
2018-04-12T19:24:05.017Z,17.93
2018-04-12T19:26:32.674Z,18.57
2018-04-12T19:29:00.435Z,18.67
2018-04-12T19:31:28.705Z,19.60
2018-04-12T19:33:56.348Z,18.80
2018-04-12T19:36:24.016Z,19.43
2018-04-12T19:39:15.746Z,18.90
2018-04-12T19:41:43.481Z,19.23
2018-04-12T19:44:11.210Z,19.47
2018-04-12T19:46:38.887Z,18.80
2018-04-12T19:49:07.284Z,20.10
2018-04-12T19:51:34.950Z,18.83
2018-04-12T19:54:02.636Z,19.90
2018-04-12T19:56:30.253Z,20.27
2018-04-12T19:58:58.659Z,19.77
2018-04-12T20:01:26.316Z,19.83
2018-04-12T20:03:54.192Z,19.80
2018-04-12T20:06:21.875Z,20.03
2018-04-12T20:08:49.829Z,20.57
2018-04-12T20:11:17.498Z,21.17
2018-04-12T20:13:45.222Z,20.63
2018-04-12T20:16:12.851Z,20.53
2018-04-12T20:18:40.472Z,21.07
2018-04-12T20:21:08.147Z,20.63
2018-04-12T20:23:35.735Z,23.23
2018-04-12T20:26:03.567Z,22.77
2018-04-12T20:28:31.236Z,23.63
2018-04-12T20:30:59.484Z,21.97
2018-04-12T20:33:27.132Z,21.20
2018-04-12T20:35:54.790Z,22.43
2018-04-12T20:38:22.458Z,22.80
2018-04-12T20:40:50.161Z,22.50
2018-04-12T20:43:17.805Z,22.90
2018-04-12T20:45:45.981Z,23.73
2018-04-12T20:48:13.741Z,23.23
2018-04-12T20:50:41.984Z,23.87
2018-04-12T20:53:09.584Z,23.50
2018-04-12T20:55:37.262Z,24.00
2018-04-12T20:58:04.896Z,24.20
2018-04-12T21:00:32.563Z,25.30
2018-04-12T21:03:00.223Z,24.87
2018-04-12T21:05:27.966Z,24.77
2018-04-12T21:07:55.847Z,24.83
2018-04-12T21:10:23.802Z,25.03
2018-04-12T21:12:51.438Z,24.87
2018-04-12T21:15:19.833Z,25.30
2018-04-12T21:17:47.474Z,25.07
2018-04-12T21:20:15.875Z,24.07
2018-04-12T21:22:43.558Z,24.67
2018-04-12T21:25:12.161Z,26.27
2018-04-12T21:27:40.328Z,25.17
2018-04-12T21:30:07.993Z,26.37
2018-04-12T21:32:35.605Z,25.47
2018-04-12T21:35:03.497Z,26.33
2018-04-12T21:37:31.086Z,27.00
2018-04-12T21:39:58.770Z,24.40
2018-04-12T21:42:27.210Z,25.93
2018-04-12T21:44:56.668Z,25.77
2018-04-12T21:47:24.388Z,25.13
2018-04-12T21:49:52.125Z,25.43
2018-04-12T21:52:19.827Z,24.60
2018-04-12T21:54:48.299Z,26.03
2018-04-12T21:57:17.776Z,25.83
2018-04-12T21:59:45.521Z,27.00
2018-04-12T22:02:13.260Z,27.87
2018-04-12T22:04:41.756Z,28.27
2018-04-12T22:07:10.103Z,27.40
2018-04-12T22:09:39.615Z,26.40
2018-04-12T22:12:07.556Z,26.27
2018-04-12T22:14:35.284Z,28.00
2018-04-12T22:17:02.908Z,26.80
2018-04-12T22:19:30.651Z,27.17
2018-04-12T22:21:58.996Z,27.97
2018-04-12T22:24:26.583Z,28.43
2018-04-12T22:26:54.283Z,27.87
2018-04-12T22:29:21.913Z,28.97
2018-04-12T22:31:50.481Z,28.60
2018-04-12T22:34:18.916Z,27.30
2018-04-12T22:36:47.372Z,27.17
2018-04-12T22:39:15.851Z,28.53
2018-04-12T22:41:45.117Z,28.50
2018-04-12T22:44:12.840Z,29.17
2018-04-12T22:46:40.585Z,28.70
2018-04-12T22:49:08.302Z,28.83
2018-04-12T22:51:36.253Z,28.43
2018-04-12T23:14:42.581Z,26.10
2018-04-12T23:17:10.979Z,28.40
2018-04-12T23:19:38.590Z,29.23
2018-04-12T23:22:06.260Z,28.23
2018-04-12T23:24:33.912Z,29.30
2018-04-12T23:27:01.586Z,27.83
2018-04-12T23:29:30.642Z,28.83
2018-04-12T23:31:58.243Z,27.50
2018-04-12T23:34:25.855Z,26.40
2018-04-12T23:36:54.101Z,27.80
2018-04-12T23:39:22.504Z,28.20
2018-04-12T23:44:24.151Z,26.83
2018-04-12T23:46:52.557Z,28.50
2018-04-12T23:49:21.113Z,27.77
2018-04-12T23:51:49.530Z,27.00
2018-04-12T23:54:17.153Z,27.20
2018-04-12T23:56:45.546Z,28.67
2018-04-12T23:59:13.160Z,26.77
